^^
Station Historical Data
Daily Summary for February 7, 2019 Units:  English    Metric   Both
« Previous Day
Next Day »
Daily Weekly Monthly Yearly Custom
  High: Low: Average:
Temperature: -8.2 °F -18.9 °F -11.5 °F
Dew Point: -10.4 °F -23.4 °F -15.9 °F
Humidity: 94% 78% 80%
Wind Speed: 25.0mph 7.0mph 14.3mph
Wind Gust: 30.0mph - -
Wind- - NW
Pressure: 30.53 in 30.41 in -
Precipitation: 0.00 in    
Historical Graphs
 
 
Tabular Data for February 7, 2019
Time Temperature Dew Point Pressure Wind Wind Speed Wind Gust Humidity Rainfall Rate (Hourly) solar Conditions
00:04 -8.2 °F -12.7 °F 30.43 in NW 11.0 mph 16.0 mph 80% 0.00 in 0.00 W/m2
00:09 -8.2 °F -12.7 °F 30.43 in NNW 15.0 mph 18.0 mph 80% 0.00 in 0.00 W/m2
00:14 -8.3 °F -12.8 °F 30.43 in NW 8.0 mph 18.0 mph 80% 0.00 in 0.00 W/m2
00:19 -8.4 °F -12.9 °F 30.44 in NNW 14.0 mph 17.0 mph 80% 0.00 in 0.00 W/m2
00:24 -8.4 °F -12.9 °F 30.44 in NW 14.0 mph 18.0 mph 80% 0.00 in 0.00 W/m2
00:29 -8.4 °F -12.9 °F 30.44 in NW 15.0 mph 18.0 mph 80% 0.00 in 0.00 W/m2
00:34 -8.4 °F -12.9 °F 30.44 in NW 11.0 mph 18.0 mph 80% 0.00 in 0.00 W/m2
00:39 -8.5 °F -13.0 °F 30.44 in NW 12.0 mph 19.0 mph 80% 0.00 in 0.00 W/m2
00:44 -8.5 °F -13.3 °F 30.45 in NNW 16.0 mph 19.0 mph 79% 0.00 in 0.00 W/m2
00:49 -8.6 °F -13.4 °F 30.45 in NW 11.0 mph 18.0 mph 79% 0.00 in 0.00 W/m2
00:54 -8.6 °F -13.4 °F 30.45 in NNW 10.0 mph 18.0 mph 79% 0.00 in 0.00 W/m2
00:59 -8.6 °F -13.1 °F 30.45 in NNW 15.0 mph 18.0 mph 80% 0.00 in 0.00 W/m2
01:04 -8.6 °F -13.1 °F 30.45 in NW 13.0 mph 18.0 mph 80% 0.00 in 0.00 W/m2
01:09 -8.6 °F -13.1 °F 30.45 in NNW 12.0 mph 18.0 mph 80% 0.00 in 0.00 W/m2
01:14 -8.6 °F -13.1 °F 30.45 in NNW 12.0 mph 18.0 mph 80% 0.00 in 0.00 W/m2
01:19 -8.6 °F -13.1 °F 30.45 in NNW 15.0 mph 18.0 mph 80% 0.00 in 0.00 W/m2
01:24 -8.6 °F -13.1 °F 30.45 in NNW 14.0 mph 17.0 mph 80% 0.00 in 0.00 W/m2
01:29 -8.6 °F -13.1 °F 30.44 in NNW 13.0 mph 17.0 mph 80% 0.00 in 0.00 W/m2
01:34 -8.6 °F -13.1 °F 30.44 in NW 9.0 mph 19.0 mph 80% 0.00 in 0.00 W/m2
01:39 -8.6 °F -13.1 °F 30.44 in NW 10.0 mph 19.0 mph 80% 0.00 in 0.00 W/m2
01:44 -8.6 °F -13.1 °F 30.44 in NNW 12.0 mph 17.0 mph 80% 0.00 in 0.00 W/m2
01:49 -8.6 °F -13.1 °F 30.44 in NW 13.0 mph 18.0 mph 80% 0.00 in 0.00 W/m2
01:54 -8.6 °F -13.1 °F 30.43 in NW 16.0 mph 19.0 mph 80% 0.00 in 0.00 W/m2
01:59 -8.5 °F -13.0 °F 30.43 in NNW 16.0 mph 22.0 mph 80% 0.00 in 0.00 W/m2
02:04 -8.6 °F -13.1 °F 30.43 in NW 15.0 mph 22.0 mph 80% 0.00 in 0.00 W/m2
02:09 -8.5 °F -13.0 °F 30.43 in NNW 15.0 mph 22.0 mph 80% 0.00 in 0.00 W/m2
02:14 -8.5 °F -13.0 °F 30.42 in NW 16.0 mph 22.0 mph 80% 0.00 in 0.00 W/m2
02:19 -8.5 °F -12.8 °F 30.43 in NW 16.0 mph 21.0 mph 81% 0.00 in 0.00 W/m2
02:24 -8.7 °F -10.4 °F 30.43 in NW 12.0 mph 21.0 mph 92% 0.00 in 0.00 W/m2
02:29 -9.0 °F -13.3 °F 30.42 in NW 13.0 mph 17.0 mph 81% 0.00 in 0.00 W/m2
02:34 -9.1 °F -13.4 °F 30.43 in NW 11.0 mph 17.0 mph 81% 0.00 in 0.00 W/m2
02:39 -9.1 °F -13.4 °F 30.43 in NW 10.0 mph 16.0 mph 81% 0.00 in 0.00 W/m2
02:44 -9.0 °F -13.3 °F 30.43 in WNW 11.0 mph 16.0 mph 81% 0.00 in 0.00 W/m2
02:49 -9.1 °F -13.4 °F 30.43 in NW 8.0 mph 19.0 mph 81% 0.00 in 0.00 W/m2
02:54 -9.1 °F -13.4 °F 30.42 in NW 10.0 mph 19.0 mph 81% 0.00 in 0.00 W/m2
02:59 -9.2 °F -13.4 °F 30.42 in NNW 13.0 mph 17.0 mph 81% 0.00 in 0.00 W/m2
03:04 -9.2 °F -13.4 °F 30.42 in NW 10.0 mph 18.0 mph 81% 0.00 in 0.00 W/m2
03:09 -9.2 °F -13.4 °F 30.43 in NNW 12.0 mph 18.0 mph 81% 0.00 in 0.00 W/m2
03:14 -9.2 °F -13.4 °F 30.42 in NW 11.0 mph 17.0 mph 81% 0.00 in 0.00 W/m2
03:19 -9.2 °F -13.4 °F 30.42 in NW 12.0 mph 16.0 mph 81% 0.00 in 0.00 W/m2
03:24 -9.1 °F -13.1 °F 30.42 in NW 19.0 mph 19.0 mph 82% 0.00 in 0.00 W/m2
03:29 -8.8 °F -12.8 °F 30.42 in NNW 18.0 mph 20.0 mph 82% 0.00 in 0.00 W/m2
03:34 -8.7 °F -13.0 °F 30.42 in NW 17.0 mph 21.0 mph 81% 0.00 in 0.00 W/m2
03:39 -8.6 °F -12.6 °F 30.41 in NNW 15.0 mph 25.0 mph 82% 0.00 in 0.00 W/m2
03:44 -8.5 °F -12.8 °F 30.41 in NW 12.0 mph 25.0 mph 81% 0.00 in 0.00 W/m2
03:49 -8.5 °F -12.8 °F 30.41 in NNW 11.0 mph 24.0 mph 81% 0.00 in 0.00 W/m2
03:54 -8.5 °F -12.8 °F 30.41 in NNW 14.0 mph 24.0 mph 81% 0.00 in 0.00 W/m2
03:59 -8.6 °F -12.6 °F 30.41 in NW 15.0 mph 23.0 mph 82% 0.00 in 0.00 W/m2
04:04 -8.6 °F -12.9 °F 30.41 in WNW 14.0 mph 23.0 mph 81% 0.00 in 0.00 W/m2
04:09 -8.7 °F -12.7 °F 30.41 in NW 12.0 mph 22.0 mph 82% 0.00 in 0.00 W/m2
04:14 -8.7 °F -13.0 °F 30.41 in NW 14.0 mph 22.0 mph 81% 0.00 in 0.00 W/m2
04:19 -8.8 °F -12.8 °F 30.41 in NW 18.0 mph 21.0 mph 82% 0.00 in 0.00 W/m2
04:24 -8.9 °F -12.9 °F 30.41 in NW 15.0 mph 20.0 mph 82% 0.00 in 0.00 W/m2
04:29 -9.0 °F -13.0 °F 30.41 in NNW 18.0 mph 20.0 mph 82% 0.00 in 0.00 W/m2
04:34 -9.0 °F -13.0 °F 30.41 in NNW 19.0 mph 20.0 mph 82% 0.00 in 0.00 W/m2
04:39 -9.1 °F -13.1 °F 30.41 in NW 13.0 mph 20.0 mph 82% 0.00 in 0.00 W/m2
04:44 -9.1 °F -13.1 °F 30.41 in NW 14.0 mph 21.0 mph 82% 0.00 in 0.00 W/m2
04:49 -9.1 °F -13.1 °F 30.41 in NW 11.0 mph 21.0 mph 82% 0.00 in 0.00 W/m2
04:54 -9.1 °F -13.1 °F 30.41 in NW 12.0 mph 20.0 mph 82% 0.00 in 0.00 W/m2
04:59 -9.3 °F -13.3 °F 30.41 in NW 13.0 mph 19.0 mph 82% 0.00 in 0.00 W/m2
05:04 -9.3 °F -13.3 °F 30.41 in NNW 16.0 mph 19.0 mph 82% 0.00 in 0.00 W/m2
05:09 -9.3 °F -13.3 °F 30.41 in NW 16.0 mph 19.0 mph 82% 0.00 in 0.00 W/m2
05:14 -9.3 °F -13.3 °F 30.41 in NNW 13.0 mph 20.0 mph 82% 0.00 in 0.00 W/m2
05:19 -9.3 °F -13.3 °F 30.41 in NW 15.0 mph 20.0 mph 82% 0.00 in 0.00 W/m2
05:24 -9.3 °F -13.3 °F 30.41 in NNW 13.0 mph 20.0 mph 82% 0.00 in 0.00 W/m2
05:29 -9.3 °F -13.3 °F 30.41 in NW 12.0 mph 20.0 mph 82% 0.00 in 0.00 W/m2
05:34 -9.3 °F -13.3 °F 30.41 in NNW 14.0 mph 19.0 mph 82% 0.00 in 0.00 W/m2
05:39 -9.3 °F -13.3 °F 30.41 in NNW 12.0 mph 18.0 mph 82% 0.00 in 0.00 W/m2
05:44 -9.3 °F -13.3 °F 30.41 in NNW 14.0 mph 21.0 mph 82% 0.00 in 0.00 W/m2
05:49 -9.3 °F -13.3 °F 30.41 in NW 16.0 mph 21.0 mph 82% 0.00 in 0.00 W/m2
05:54 -9.4 °F -13.4 °F 30.41 in NNW 17.0 mph 21.0 mph 82% 0.00 in 0.00 W/m2
05:59 -9.4 °F -13.4 °F 30.41 in NNW 16.0 mph 21.0 mph 82% 0.00 in 0.00 W/m2
06:04 -9.4 °F -10.7 °F 30.42 in NW 14.0 mph 20.0 mph 94% 0.00 in 0.00 W/m2
06:09 -9.4 °F -13.4 °F 30.42 in NW 15.0 mph 22.0 mph 82% 0.00 in 0.00 W/m2
06:14 -9.4 °F -13.4 °F 30.42 in NW 17.0 mph 24.0 mph 82% 0.00 in 0.00 W/m2
06:19 -9.5 °F -13.5 °F 30.42 in NW 17.0 mph 24.0 mph 82% 0.00 in 0.00 W/m2
06:24 -9.6 °F -13.6 °F 30.42 in NNW 13.0 mph 24.0 mph 82% 0.00 in 0.00 W/m2
06:29 -9.7 °F -13.7 °F 30.42 in NW 13.0 mph 22.0 mph 82% 0.00 in 0.00 W/m2
06:34 -9.8 °F -13.8 °F 30.42 in NW 16.0 mph 22.0 mph 82% 0.00 in 0.00 W/m2
06:39 -9.8 °F -13.8 °F 30.42 in NW 13.0 mph 20.0 mph 82% 0.00 in 0.00 W/m2
06:44 -9.9 °F -13.9 °F 30.43 in NNW 18.0 mph 23.0 mph 82% 0.00 in 0.00 W/m2
06:49 -10.0 °F -14.0 °F 30.43 in NW 21.0 mph 24.0 mph 82% 0.00 in 0.00 W/m2
06:54 -10.0 °F -14.0 °F 30.43 in NNW 16.0 mph 24.0 mph 82% 0.00 in 0.00 W/m2
06:59 -10.1 °F -14.1 °F 30.43 in NW 15.0 mph 23.0 mph 82% 0.00 in 0.00 W/m2
07:04 -10.1 °F -14.1 °F 30.43 in NW 17.0 mph 22.0 mph 82% 0.00 in 0.00 W/m2
07:09 -10.1 °F -14.1 °F 30.43 in NNW 17.0 mph 22.0 mph 82% 0.00 in 0.00 W/m2
07:14 -10.2 °F -14.2 °F 30.43 in NW 18.0 mph 25.0 mph 82% 0.00 in 0.00 W/m2
07:19 -10.3 °F -14.3 °F 30.43 in NNW 13.0 mph 25.0 mph 82% 0.00 in 0.00 W/m2
07:24 -10.2 °F -14.2 °F 30.43 in NW 23.0 mph 24.0 mph 82% 0.00 in 0.00 W/m2
07:29 -10.3 °F -14.3 °F 30.43 in NNW 15.0 mph 24.0 mph 82% 0.00 in 0.00 W/m2
07:34 -10.3 °F -14.3 °F 30.43 in NW 13.0 mph 24.0 mph 82% 0.00 in 0.00 W/m2
07:39 -10.3 °F -14.3 °F 30.43 in NNW 19.0 mph 23.0 mph 82% 0.00 in 0.00 W/m2
07:44 -10.4 °F -14.4 °F 30.43 in NW 14.0 mph 23.0 mph 82% 0.00 in 0.00 W/m2
07:49 -10.4 °F -14.4 °F 30.43 in WNW 16.0 mph 22.0 mph 82% 0.00 in 0.00 W/m2
07:54 -10.6 °F -14.6 °F 30.43 in NW 13.0 mph 20.0 mph 82% 0.00 in 0.00 W/m2
07:59 -10.7 °F -14.7 °F 30.44 in NNW 16.0 mph 21.0 mph 82% 0.00 in 0.00 W/m2
08:04 -10.7 °F -14.7 °F 30.44 in NW 12.0 mph 22.0 mph 82% 0.00 in 5.00 W/m2
08:09 -10.8 °F -15.0 °F 30.44 in NW 11.0 mph 22.0 mph 81% 0.00 in 7.00 W/m2
08:14 -10.9 °F -15.1 °F 30.44 in NW 13.0 mph 23.0 mph 81% 0.00 in 11.00 W/m2
08:19 -10.9 °F -14.9 °F 30.45 in NW 9.0 mph 23.0 mph 82% 0.00 in 16.00 W/m2
08:24 -11.0 °F -15.0 °F 30.45 in NW 10.0 mph 20.0 mph 82% 0.00 in 21.00 W/m2
08:29 -11.2 °F -15.4 °F 30.45 in WNW 10.0 mph 19.0 mph 81% 0.00 in 26.00 W/m2
08:34 -11.3 °F -15.5 °F 30.45 in NNW 13.0 mph 21.0 mph 81% 0.00 in 30.00 W/m2
08:39 -11.3 °F -15.5 °F 30.45 in WNW 18.0 mph 22.0 mph 81% 0.00 in 37.00 W/m2
08:44 -11.4 °F -15.6 °F 30.45 in NNW 18.0 mph 22.0 mph 81% 0.00 in 44.00 W/m2
08:49 -11.5 °F -15.7 °F 30.45 in NW 20.0 mph 24.0 mph 81% 0.00 in 51.00 W/m2
08:54 -11.5 °F -15.7 °F 30.46 in WNW 12.0 mph 25.0 mph 81% 0.00 in 60.00 W/m2
08:59 -11.6 °F -15.8 °F 30.46 in NW 13.0 mph 25.0 mph 81% 0.00 in 69.00 W/m2
09:04 -11.8 °F -16.0 °F 30.46 in NW 12.0 mph 23.0 mph 81% 0.00 in 77.00 W/m2
09:09 -12.0 °F -16.2 °F 30.46 in NNW 20.0 mph 25.0 mph 81% 0.00 in 86.00 W/m2
09:14 -12.0 °F -16.2 °F 30.46 in NNW 18.0 mph 26.0 mph 81% 0.00 in 95.00 W/m2
09:19 -12.0 °F -16.2 °F 30.46 in NW 18.0 mph 26.0 mph 81% 0.00 in 104.00 W/m2
09:24 -12.2 °F -16.4 °F 30.46 in NW 15.0 mph 27.0 mph 81% 0.00 in 113.00 W/m2
09:29 -12.2 °F -16.4 °F 30.46 in NW 19.0 mph 27.0 mph 81% 0.00 in 125.00 W/m2
09:34 -12.3 °F -16.5 °F 30.46 in NW 19.0 mph 26.0 mph 81% 0.00 in 135.00 W/m2
09:39 -12.4 °F -16.6 °F 30.46 in NNW 18.0 mph 26.0 mph 81% 0.00 in 144.00 W/m2
09:44 -12.4 °F -16.6 °F 30.46 in NNW 20.0 mph 26.0 mph 81% 0.00 in 148.00 W/m2
09:49 -12.4 °F -16.6 °F 30.46 in NW 12.0 mph 25.0 mph 81% 0.00 in 151.00 W/m2
09:54 -12.4 °F -16.6 °F 30.46 in NW 20.0 mph 24.0 mph 81% 0.00 in 151.00 W/m2
09:59 -12.4 °F -16.6 °F 30.46 in NW 23.0 mph 27.0 mph 81% 0.00 in 151.00 W/m2
10:04 -12.5 °F -16.7 °F 30.46 in NW 11.0 mph 28.0 mph 81% 0.00 in 151.00 W/m2
10:09 -12.3 °F -16.5 °F 30.46 in NNW 11.0 mph 28.0 mph 81% 0.00 in 151.00 W/m2
10:14 -12.5 °F -16.7 °F 30.47 in NNW 18.0 mph 23.0 mph 81% 0.00 in 153.00 W/m2
10:19 -12.5 °F -16.7 °F 30.47 in NNW 20.0 mph 25.0 mph 81% 0.00 in 160.00 W/m2
10:24 -12.4 °F -16.6 °F 30.47 in WNW 18.0 mph 25.0 mph 81% 0.00 in 165.00 W/m2
10:29 -12.3 °F -16.5 °F 30.46 in NNW 15.0 mph 25.0 mph 81% 0.00 in 176.00 W/m2
10:34 -12.4 °F -16.6 °F 30.46 in NW 16.0 mph 24.0 mph 81% 0.00 in 190.00 W/m2
10:39 -12.4 °F -16.8 °F 30.46 in NW 18.0 mph 24.0 mph 80% 0.00 in 202.00 W/m2
10:44 -12.2 °F -16.6 °F 30.46 in NW 15.0 mph 22.0 mph 80% 0.00 in 216.00 W/m2
10:49 -12.2 °F -16.6 °F 30.47 in NW 18.0 mph 22.0 mph 80% 0.00 in 234.00 W/m2
10:54 -12.2 °F -16.6 °F 30.46 in NW 22.0 mph 24.0 mph 80% 0.00 in 244.00 W/m2
10:59 -12.3 °F -16.7 °F 30.46 in NNW 17.0 mph 24.0 mph 80% 0.00 in 257.00 W/m2
11:04 -12.1 °F -16.5 °F 30.46 in NW 17.0 mph 25.0 mph 80% 0.00 in 274.00 W/m2
11:09 -12.1 °F -16.5 °F 30.46 in NW 15.0 mph 25.0 mph 80% 0.00 in 257.00 W/m2
11:14 -12.0 °F -16.2 °F 30.46 in NW 13.0 mph 23.0 mph 81% 0.00 in 236.00 W/m2
11:19 -11.9 °F -16.1 °F 30.46 in NW 17.0 mph 23.0 mph 81% 0.00 in 274.00 W/m2
11:24 -11.7 °F -16.1 °F 30.46 in NW 16.0 mph 25.0 mph 80% 0.00 in 350.00 W/m2
11:29 -11.6 °F -16.0 °F 30.46 in NNW 15.0 mph 25.0 mph 80% 0.00 in 360.00 W/m2
11:34 -11.4 °F -15.8 °F 30.46 in NW 17.0 mph 22.0 mph 80% 0.00 in 352.00 W/m2
11:39 -11.2 °F -15.7 °F 30.46 in NW 12.0 mph 23.0 mph 80% 0.00 in 413.00 W/m2
11:44 -10.8 °F -15.0 °F 30.46 in WNW 11.0 mph 23.0 mph 81% 0.00 in 397.00 W/m2
11:49 -10.8 °F -15.3 °F 30.45 in NW 15.0 mph 21.0 mph 80% 0.00 in 425.00 W/m2
11:54 -10.9 °F -12.6 °F 30.45 in WNW 17.0 mph 22.0 mph 92% 0.00 in 420.00 W/m2
11:59 -10.6 °F -15.1 °F 30.45 in NW 18.0 mph 23.0 mph 80% 0.00 in 404.00 W/m2
12:04 -10.7 °F -15.2 °F 30.45 in NW 17.0 mph 23.0 mph 80% 0.00 in 406.00 W/m2
12:09 -10.7 °F -15.2 °F 30.45 in NW 18.0 mph 24.0 mph 80% 0.00 in 408.00 W/m2
12:14 -10.4 °F -14.9 °F 30.45 in NW 11.0 mph 24.0 mph 80% 0.00 in 410.00 W/m2
12:19 -10.3 °F -14.8 °F 30.45 in NW 13.0 mph 23.0 mph 80% 0.00 in 475.00 W/m2
12:24 -10.4 °F -14.9 °F 30.45 in NW 19.0 mph 23.0 mph 80% 0.00 in 431.00 W/m2
12:29 -10.4 °F -14.9 °F 30.44 in WNW 13.0 mph 24.0 mph 80% 0.00 in 411.00 W/m2
12:34 -10.3 °F -14.8 °F 30.44 in NW 16.0 mph 24.0 mph 80% 0.00 in 436.00 W/m2
12:39 -10.1 °F -14.6 °F 30.44 in NW 14.0 mph 23.0 mph 80% 0.00 in 334.00 W/m2
12:44 -10.6 °F -15.1 °F 30.44 in NW 18.0 mph 24.0 mph 80% 0.00 in 290.00 W/m2
12:49 -10.4 °F -14.9 °F 30.44 in NW 21.0 mph 24.0 mph 80% 0.00 in 454.00 W/m2
12:54 -10.2 °F -14.4 °F 30.44 in WNW 16.0 mph 24.0 mph 81% 0.00 in 471.00 W/m2
12:59 -10.0 °F -14.5 °F 30.43 in NW 19.0 mph 26.0 mph 80% 0.00 in 492.00 W/m2
13:04 -9.9 °F -14.4 °F 30.44 in NNW 16.0 mph 26.0 mph 80% 0.00 in 533.00 W/m2
13:09 -9.5 °F -13.7 °F 30.44 in NW 15.0 mph 26.0 mph 81% 0.00 in 497.00 W/m2
13:14 -9.5 °F -14.0 °F 30.44 in NW 11.0 mph 24.0 mph 80% 0.00 in 510.00 W/m2
13:19 -9.1 °F -13.4 °F 30.44 in NW 19.0 mph 24.0 mph 81% 0.00 in 577.00 W/m2
13:24 -8.9 °F -13.4 °F 30.44 in NNW 16.0 mph 25.0 mph 80% 0.00 in 629.00 W/m2
13:29 -8.9 °F -13.4 °F 30.44 in NNW 20.0 mph 25.0 mph 80% 0.00 in 492.00 W/m2
13:34 -9.1 °F -13.6 °F 30.44 in NW 15.0 mph 27.0 mph 80% 0.00 in 411.00 W/m2
13:39 -9.3 °F -13.8 °F 30.44 in NW 15.0 mph 27.0 mph 80% 0.00 in 387.00 W/m2
13:44 -9.8 °F -14.3 °F 30.44 in NW 17.0 mph 25.0 mph 80% 0.00 in 374.00 W/m2
13:49 -9.9 °F -14.4 °F 30.44 in NW 19.0 mph 26.0 mph 80% 0.00 in 373.00 W/m2
13:54 -9.9 °F -14.4 °F 30.44 in NW 23.0 mph 26.0 mph 80% 0.00 in 408.00 W/m2
13:59 -9.9 °F -14.4 °F 30.44 in NW 17.0 mph 26.0 mph 80% 0.00 in 367.00 W/m2
14:04 -9.8 °F -14.3 °F 30.44 in NW 22.0 mph 28.0 mph 80% 0.00 in 394.00 W/m2
14:09 -9.5 °F -14.0 °F 30.44 in NNW 20.0 mph 28.0 mph 80% 0.00 in 443.00 W/m2
14:14 -9.1 °F -13.6 °F 30.44 in NW 16.0 mph 26.0 mph 80% 0.00 in 526.00 W/m2
14:19 -9.3 °F -13.8 °F 30.45 in NW 13.0 mph 25.0 mph 80% 0.00 in 359.00 W/m2
14:24 -9.2 °F -13.7 °F 30.45 in NW 15.0 mph 24.0 mph 80% 0.00 in 387.00 W/m2
14:29 -9.1 °F -13.6 °F 30.45 in NW 18.0 mph 22.0 mph 80% 0.00 in 466.00 W/m2
14:34 -8.9 °F -13.4 °F 30.44 in NW 14.0 mph 23.0 mph 80% 0.00 in 411.00 W/m2
14:39 -9.1 °F -13.6 °F 30.45 in NW 16.0 mph 26.0 mph 80% 0.00 in 401.00 W/m2
14:44 -9.1 °F -13.6 °F 30.44 in NW 13.0 mph 26.0 mph 80% 0.00 in 381.00 W/m2
14:49 -9.0 °F -13.5 °F 30.44 in NW 21.0 mph 24.0 mph 80% 0.00 in 346.00 W/m2
14:54 -8.9 °F -13.4 °F 30.45 in WNW 12.0 mph 25.0 mph 80% 0.00 in 343.00 W/m2
14:59 -9.2 °F -13.7 °F 30.45 in WNW 13.0 mph 26.0 mph 80% 0.00 in 352.00 W/m2
15:04 -9.1 °F -13.6 °F 30.45 in NW 21.0 mph 26.0 mph 80% 0.00 in 345.00 W/m2
15:09 -9.1 °F -13.6 °F 30.44 in NW 12.0 mph 28.0 mph 80% 0.00 in 294.00 W/m2
15:14 -8.5 °F -13.0 °F 30.45 in NW 25.0 mph 28.0 mph 80% 0.00 in 424.00 W/m2
15:19 -8.7 °F -13.2 °F 30.45 in NW 17.0 mph 25.0 mph 80% 0.00 in 287.00 W/m2
15:24 -8.8 °F -13.3 °F 30.45 in NW 17.0 mph 25.0 mph 80% 0.00 in 294.00 W/m2
15:29 -8.7 °F -13.2 °F 30.45 in WNW 19.0 mph 23.0 mph 80% 0.00 in 318.00 W/m2
15:34 -8.6 °F -13.1 °F 30.45 in NW 23.0 mph 30.0 mph 80% 0.00 in 318.00 W/m2
15:39 -8.4 °F -12.9 °F 30.45 in NW 22.0 mph 30.0 mph 80% 0.00 in 359.00 W/m2
15:44 -8.5 °F -13.0 °F 30.45 in NW 17.0 mph 26.0 mph 80% 0.00 in 292.00 W/m2
15:49 -8.9 °F -13.4 °F 30.46 in NW 20.0 mph 26.0 mph 80% 0.00 in 258.00 W/m2
15:54 -9.3 °F -13.8 °F 30.46 in WNW 17.0 mph 26.0 mph 80% 0.00 in 250.00 W/m2
15:59 -9.4 °F -13.9 °F 30.46 in NW 21.0 mph 26.0 mph 80% 0.00 in 223.00 W/m2
16:04 -9.7 °F -14.2 °F 30.46 in WNW 23.0 mph 23.0 mph 80% 0.00 in 197.00 W/m2
16:09 -10.0 °F -14.5 °F 30.46 in NW 19.0 mph 27.0 mph 80% 0.00 in 223.00 W/m2
16:14 -10.2 °F -14.7 °F 30.46 in WNW 22.0 mph 27.0 mph 80% 0.00 in 200.00 W/m2
16:19 -10.4 °F -14.9 °F 30.47 in NW 15.0 mph 26.0 mph 80% 0.00 in 169.00 W/m2
16:24 -10.5 °F -15.0 °F 30.47 in WNW 14.0 mph 26.0 mph 80% 0.00 in 174.00 W/m2
16:29 -10.4 °F -14.9 °F 30.47 in WNW 15.0 mph 24.0 mph 80% 0.00 in 186.00 W/m2
16:34 -10.4 °F -14.9 °F 30.47 in NW 16.0 mph 23.0 mph 80% 0.00 in 169.00 W/m2
16:39 -10.4 °F -15.1 °F 30.47 in WNW 14.0 mph 23.0 mph 79% 0.00 in 153.00 W/m2
16:44 -10.5 °F -15.2 °F 30.47 in NW 13.0 mph 24.0 mph 79% 0.00 in 134.00 W/m2
16:49 -10.5 °F -15.2 °F 30.47 in NW 19.0 mph 24.0 mph 79% 0.00 in 123.00 W/m2
16:54 -10.5 °F -15.2 °F 30.47 in WNW 18.0 mph 23.0 mph 79% 0.00 in 114.00 W/m2
16:59 -10.5 °F -15.2 °F 30.47 in NW 13.0 mph 23.0 mph 79% 0.00 in 105.00 W/m2
17:04 -10.7 °F -15.4 °F 30.47 in WNW 14.0 mph 22.0 mph 79% 0.00 in 84.00 W/m2
17:09 -10.7 °F -15.4 °F 30.47 in WNW 14.0 mph 22.0 mph 79% 0.00 in 72.00 W/m2
17:14 -10.7 °F -15.4 °F 30.48 in NW 17.0 mph 21.0 mph 79% 0.00 in 56.00 W/m2
17:19 -10.8 °F -15.5 °F 30.48 in WNW 13.0 mph 21.0 mph 79% 0.00 in 40.00 W/m2
17:24 -11.0 °F -15.7 °F 30.48 in WNW 11.0 mph 23.0 mph 79% 0.00 in 30.00 W/m2
17:29 -11.2 °F -15.9 °F 30.48 in WNW 13.0 mph 23.0 mph 79% 0.00 in 25.00 W/m2
17:34 -11.4 °F -16.1 °F 30.48 in WNW 12.0 mph 21.0 mph 79% 0.00 in 19.00 W/m2
17:39 -11.7 °F -16.4 °F 30.48 in NW 11.0 mph 21.0 mph 79% 0.00 in 18.00 W/m2
17:44 -12.0 °F -16.7 °F 30.48 in WNW 15.0 mph 21.0 mph 79% 0.00 in 12.00 W/m2
17:49 -12.2 °F -16.9 °F 30.48 in WNW 18.0 mph 21.0 mph 79% 0.00 in 11.00 W/m2
17:54 -12.5 °F -17.2 °F 30.48 in NW 13.0 mph 21.0 mph 79% 0.00 in 7.00 W/m2
17:59 -12.6 °F -17.3 °F 30.48 in NW 14.0 mph 18.0 mph 79% 0.00 in 5.00 W/m2
18:04 -12.8 °F -17.5 °F 30.49 in WNW 11.0 mph 17.0 mph 79% 0.00 in 0.00 W/m2
18:09 -12.9 °F -17.6 °F 30.49 in NW 9.0 mph 16.0 mph 79% 0.00 in 0.00 W/m2
18:14 -13.0 °F -17.7 °F 30.49 in WNW 11.0 mph 16.0 mph 79% 0.00 in 0.00 W/m2
18:19 -13.2 °F -17.9 °F 30.49 in NW 8.0 mph 17.0 mph 79% 0.00 in 0.00 W/m2
18:24 -13.4 °F -18.0 °F 30.49 in WNW 10.0 mph 17.0 mph 79% 0.00 in 0.00 W/m2
18:29 -13.5 °F -18.1 °F 30.49 in NW 10.0 mph 14.0 mph 79% 0.00 in 0.00 W/m2
18:34 -13.5 °F -18.1 °F 30.49 in NW 9.0 mph 15.0 mph 79% 0.00 in 0.00 W/m2
18:39 -13.6 °F -18.2 °F 30.49 in WNW 12.0 mph 15.0 mph 79% 0.00 in 0.00 W/m2
18:44 -13.6 °F -18.0 °F 30.49 in NW 14.0 mph 17.0 mph 80% 0.00 in 0.00 W/m2
18:49 -13.7 °F -18.3 °F 30.49 in WNW 13.0 mph 17.0 mph 79% 0.00 in 0.00 W/m2
18:54 -13.7 °F -18.1 °F 30.50 in WNW 10.0 mph 15.0 mph 80% 0.00 in 0.00 W/m2
18:59 -13.8 °F -18.4 °F 30.50 in WNW 12.0 mph 16.0 mph 79% 0.00 in 0.00 W/m2
19:04 -13.9 °F -18.5 °F 30.50 in WNW 13.0 mph 17.0 mph 79% 0.00 in 0.00 W/m2
19:09 -13.9 °F -18.3 °F 30.50 in NW 12.0 mph 17.0 mph 80% 0.00 in 0.00 W/m2
19:14 -14.1 °F -18.5 °F 30.50 in WNW 14.0 mph 16.0 mph 80% 0.00 in 0.00 W/m2
19:19 -14.3 °F -18.7 °F 30.50 in WNW 14.0 mph 16.0 mph 80% 0.00 in 0.00 W/m2
19:24 -14.3 °F -18.7 °F 30.50 in WNW 14.0 mph 17.0 mph 80% 0.00 in 0.00 W/m2
19:29 -14.3 °F -18.7 °F 30.50 in WNW 11.0 mph 17.0 mph 80% 0.00 in 0.00 W/m2
19:34 -14.4 °F -19.0 °F 30.50 in NW 8.0 mph 17.0 mph 79% 0.00 in 0.00 W/m2
19:39 -14.7 °F -19.3 °F 30.50 in NW 10.0 mph 15.0 mph 79% 0.00 in 0.00 W/m2
19:44 -14.8 °F -19.4 °F 30.50 in WNW 11.0 mph 14.0 mph 79% 0.00 in 0.00 W/m2
19:49 -14.9 °F -19.5 °F 30.51 in WNW 10.0 mph 15.0 mph 79% 0.00 in 0.00 W/m2
19:54 -14.9 °F -19.5 °F 30.51 in NW 12.0 mph 15.0 mph 79% 0.00 in 0.00 W/m2
19:59 -14.9 °F -19.5 °F 30.51 in NW 11.0 mph 15.0 mph 79% 0.00 in 0.00 W/m2
20:04 -15.1 °F -19.7 °F 30.51 in NW 11.0 mph 15.0 mph 79% 0.00 in 0.00 W/m2
20:09 -15.3 °F -19.9 °F 30.51 in WNW 13.0 mph 18.0 mph 79% 0.00 in 0.00 W/m2
20:14 -15.3 °F -19.9 °F 30.51 in NW 11.0 mph 18.0 mph 79% 0.00 in 0.00 W/m2
20:19 -15.3 °F -19.9 °F 30.51 in WNW 13.0 mph 15.0 mph 79% 0.00 in 0.00 W/m2
20:24 -15.4 °F -20.0 °F 30.51 in WNW 12.0 mph 16.0 mph 79% 0.00 in 0.00 W/m2
20:29 -15.4 °F -20.0 °F 30.51 in NW 9.0 mph 16.0 mph 79% 0.00 in 0.00 W/m2
20:34 -15.7 °F -20.3 °F 30.51 in WNW 12.0 mph 16.0 mph 79% 0.00 in 0.00 W/m2
20:39 -15.8 °F -20.4 °F 30.51 in WNW 8.0 mph 16.0 mph 79% 0.00 in 0.00 W/m2
20:44 -16.1 °F -20.7 °F 30.51 in NW 12.0 mph 16.0 mph 79% 0.00 in 0.00 W/m2
20:49 -16.0 °F -20.6 °F 30.51 in WNW 12.0 mph 15.0 mph 79% 0.00 in 0.00 W/m2
20:54 -16.0 °F -20.6 °F 30.51 in WNW 17.0 mph 17.0 mph 79% 0.00 in 0.00 W/m2
20:59 -16.1 °F -20.7 °F 30.51 in NW 14.0 mph 17.0 mph 79% 0.00 in 0.00 W/m2
21:04 -16.2 °F -20.8 °F 30.51 in NW 10.0 mph 16.0 mph 79% 0.00 in 0.00 W/m2
21:09 -16.4 °F -21.0 °F 30.51 in WNW 9.0 mph 15.0 mph 79% 0.00 in 0.00 W/m2
21:14 -16.4 °F -21.0 °F 30.51 in WNW 11.0 mph 15.0 mph 79% 0.00 in 0.00 W/m2
21:19 -16.6 °F -21.2 °F 30.51 in WNW 14.0 mph 15.0 mph 79% 0.00 in 0.00 W/m2
21:24 -16.6 °F -21.2 °F 30.51 in WNW 10.0 mph 16.0 mph 79% 0.00 in 0.00 W/m2
21:29 -16.7 °F -21.3 °F 30.51 in WNW 11.0 mph 16.0 mph 79% 0.00 in 0.00 W/m2
21:34 -16.7 °F -21.3 °F 30.51 in WNW 10.0 mph 14.0 mph 79% 0.00 in 0.00 W/m2
21:39 -16.9 °F -21.5 °F 30.51 in NW 16.0 mph 16.0 mph 79% 0.00 in 0.00 W/m2
21:44 -16.9 °F -21.5 °F 30.52 in WNW 12.0 mph 17.0 mph 79% 0.00 in 0.00 W/m2
21:49 -16.9 °F -21.5 °F 30.51 in NW 11.0 mph 17.0 mph 79% 0.00 in 0.00 W/m2
21:54 -17.0 °F -21.6 °F 30.51 in NW 10.0 mph 15.0 mph 79% 0.00 in 0.00 W/m2
21:59 -17.1 °F -21.9 °F 30.51 in WNW 10.0 mph 15.0 mph 78% 0.00 in 0.00 W/m2
22:04 -17.1 °F -21.7 °F 30.52 in NW 10.0 mph 15.0 mph 79% 0.00 in 0.00 W/m2
22:09 -17.0 °F -21.6 °F 30.52 in NW 12.0 mph 19.0 mph 79% 0.00 in 0.00 W/m2
22:14 -17.0 °F -21.6 °F 30.52 in NW 13.0 mph 19.0 mph 79% 0.00 in 0.00 W/m2
22:19 -17.0 °F -21.6 °F 30.52 in NW 13.0 mph 17.0 mph 79% 0.00 in 0.00 W/m2
22:24 -17.2 °F -22.0 °F 30.52 in NW 15.0 mph 16.0 mph 78% 0.00 in 0.00 W/m2
22:29 -17.2 °F -21.8 °F 30.52 in WNW 11.0 mph 18.0 mph 79% 0.00 in 0.00 W/m2
22:34 -17.4 °F -22.0 °F 30.52 in WNW 11.0 mph 18.0 mph 79% 0.00 in 0.00 W/m2
22:39 -17.5 °F -22.1 °F 30.51 in NW 13.0 mph 15.0 mph 79% 0.00 in 0.00 W/m2
22:44 -17.7 °F -22.5 °F 30.51 in NW 15.0 mph 15.0 mph 78% 0.00 in 0.00 W/m2
22:49 -17.8 °F -22.6 °F 30.52 in NW 10.0 mph 15.0 mph 78% 0.00 in 0.00 W/m2
22:54 -17.7 °F -22.2 °F 30.52 in WNW 8.0 mph 16.0 mph 79% 0.00 in 0.00 W/m2
22:59 -17.8 °F -22.3 °F 30.52 in NW 14.0 mph 16.0 mph 79% 0.00 in 0.00 W/m2
23:04 -17.9 °F -22.4 °F 30.52 in NW 10.0 mph 15.0 mph 79% 0.00 in 0.00 W/m2
23:09 -18.2 °F -22.7 °F 30.52 in NW 10.0 mph 14.0 mph 79% 0.00 in 0.00 W/m2
23:14 -18.3 °F -22.8 °F 30.52 in NW 11.0 mph 14.0 mph 79% 0.00 in 0.00 W/m2
23:19 -18.4 °F -22.9 °F 30.53 in WNW 9.0 mph 14.0 mph 79% 0.00 in 0.00 W/m2
23:24 -18.5 °F -23.3 °F 30.53 in NW 7.0 mph 12.0 mph 78% 0.00 in 0.00 W/m2
23:29 -18.6 °F -23.1 °F 30.53 in WNW 11.0 mph 13.0 mph 79% 0.00 in 0.00 W/m2
23:34 -18.6 °F -23.1 °F 30.53 in WNW 9.0 mph 13.0 mph 79% 0.00 in 0.00 W/m2
23:39 -18.7 °F -23.2 °F 30.53 in NW 9.0 mph 12.0 mph 79% 0.00 in 0.00 W/m2
23:44 -18.7 °F -23.2 °F 30.53 in NW 8.0 mph 13.0 mph 79% 0.00 in 0.00 W/m2
23:49 -18.7 °F -23.2 °F 30.53 in WNW 14.0 mph 15.0 mph 79% 0.00 in 0.00 W/m2
23:54 -18.7 °F -23.2 °F 30.53 in NW 9.0 mph 16.0 mph 79% 0.00 in 0.00 W/m2
23:59 -18.9 °F -23.4 °F 30.53 in NW 11.0 mph 16.0 mph 79% 0.00 in 0.00 W/m2
Bismarck, North Dakota, USA
Compliments of Weather Underground - 4 mb